sensor_id;sensor_type;location;lat;lon;timestamp;P1;durP1;ratioP1;P2;durP2;ratioP2
32824;SDS011;51060;42.640;24.356;2022-09-21T00:01:58;10.07;;;7.83;;
32824;SDS011;51060;42.640;24.356;2022-09-21T00:04:23;9.53;;;7.67;;
32824;SDS011;51060;42.640;24.356;2022-09-21T00:06:49;9.57;;;8.27;;
32824;SDS011;51060;42.640;24.356;2022-09-21T00:09:14;11.57;;;8.63;;
32824;SDS011;51060;42.640;24.356;2022-09-21T00:11:40;10.50;;;8.23;;
32824;SDS011;51060;42.640;24.356;2022-09-21T00:14:08;9.73;;;7.87;;
32824;SDS011;51060;42.640;24.356;2022-09-21T00:16:36;12.40;;;8.10;;
32824;SDS011;51060;42.640;24.356;2022-09-21T00:19:04;8.57;;;7.60;;
32824;SDS011;51060;42.640;24.356;2022-09-21T00:21:30;9.63;;;7.53;;
32824;SDS011;51060;42.640;24.356;2022-09-21T00:23:58;8.70;;;7.80;;
32824;SDS011;51060;42.640;24.356;2022-09-21T00:26:24;9.57;;;7.83;;
32824;SDS011;51060;42.640;24.356;2022-09-21T00:28:51;9.10;;;7.87;;
32824;SDS011;51060;42.640;24.356;2022-09-21T00:31:20;7.73;;;6.47;;
32824;SDS011;51060;42.640;24.356;2022-09-21T00:33:45;7.17;;;6.47;;
32824;SDS011;51060;42.640;24.356;2022-09-21T00:36:12;9.17;;;6.97;;
32824;SDS011;51060;42.640;24.356;2022-09-21T00:38:41;8.33;;;6.07;;
32824;SDS011;51060;42.640;24.356;2022-09-21T00:41:07;6.93;;;6.23;;
32824;SDS011;51060;42.640;24.356;2022-09-21T00:43:35;7.87;;;7.00;;
32824;SDS011;51060;42.640;24.356;2022-09-21T00:46:03;7.43;;;6.70;;
32824;SDS011;51060;42.640;24.356;2022-09-21T00:48:31;9.20;;;7.00;;
32824;SDS011;51060;42.640;24.356;2022-09-21T00:50:58;10.00;;;7.43;;
32824;SDS011;51060;42.640;24.356;2022-09-21T00:53:27;8.47;;;7.67;;
32824;SDS011;51060;42.640;24.356;2022-09-21T00:55:53;9.47;;;8.47;;
32824;SDS011;51060;42.640;24.356;2022-09-21T00:58:21;11.10;;;9.10;;
32824;SDS011;51060;42.640;24.356;2022-09-21T01:00:51;8.63;;;7.73;;
32824;SDS011;51060;42.640;24.356;2022-09-21T01:03:17;10.10;;;7.73;;
32824;SDS011;51060;42.640;24.356;2022-09-21T01:05:43;8.47;;;7.23;;
32824;SDS011;51060;42.640;24.356;2022-09-21T01:08:08;11.17;;;9.60;;
32824;SDS011;51060;42.640;24.356;2022-09-21T01:11:02;11.60;;;8.83;;
32824;SDS011;51060;42.640;24.356;2022-09-21T01:16:15;16.90;;;12.93;;
32824;SDS011;51060;42.640;24.356;2022-09-21T01:18:48;16.13;;;13.33;;
32824;SDS011;51060;42.640;24.356;2022-09-21T01:21:18;15.67;;;12.23;;
32824;SDS011;51060;42.640;24.356;2022-09-21T01:29:34;11.17;;;9.90;;
32824;SDS011;51060;42.640;24.356;2022-09-21T01:34:34;14.23;;;10.87;;
32824;SDS011;51060;42.640;24.356;2022-09-21T01:37:05;13.27;;;9.60;;
32824;SDS011;51060;42.640;24.356;2022-09-21T01:39:34;14.20;;;9.97;;
32824;SDS011;51060;42.640;24.356;2022-09-21T01:42:00;10.73;;;9.27;;
32824;SDS011;51060;42.640;24.356;2022-09-21T01:44:28;9.03;;;8.13;;
32824;SDS011;51060;42.640;24.356;2022-09-21T01:46:58;9.10;;;7.43;;
32824;SDS011;51060;42.640;24.356;2022-09-21T01:49:27;8.03;;;7.23;;
32824;SDS011;51060;42.640;24.356;2022-09-21T01:52:00;9.17;;;6.90;;
32824;SDS011;51060;42.640;24.356;2022-09-21T01:54:34;7.70;;;6.93;;
32824;SDS011;51060;42.640;24.356;2022-09-21T01:57:14;8.67;;;7.07;;
32824;SDS011;51060;42.640;24.356;2022-09-21T01:59:56;7.97;;;7.20;;
32824;SDS011;51060;42.640;24.356;2022-09-21T02:02:34;8.00;;;6.93;;
32824;SDS011;51060;42.640;24.356;2022-09-21T02:05:05;8.13;;;6.97;;
32824;SDS011;51060;42.640;24.356;2022-09-21T02:07:31;9.33;;;8.17;;
32824;SDS011;51060;42.640;24.356;2022-09-21T02:09:57;10.13;;;8.17;;
32824;SDS011;51060;42.640;24.356;2022-09-21T02:12:23;9.97;;;8.33;;
32824;SDS011;51060;42.640;24.356;2022-09-21T02:14:49;8.63;;;7.50;;
32824;SDS011;51060;42.640;24.356;2022-09-21T02:20:05;11.63;;;7.37;;
32824;SDS011;51060;42.640;24.356;2022-09-21T02:25:33;11.37;;;8.33;;
32824;SDS011;51060;42.640;24.356;2022-09-21T02:30:51;12.17;;;9.50;;
32824;SDS011;51060;42.640;24.356;2022-09-21T02:38:37;10.43;;;9.33;;
32824;SDS011;51060;42.640;24.356;2022-09-21T02:43:58;14.93;;;11.73;;
32824;SDS011;51060;42.640;24.356;2022-09-21T02:46:29;16.00;;;11.57;;
32824;SDS011;51060;42.640;24.356;2022-09-21T02:49:17;13.23;;;8.60;;
32824;SDS011;51060;42.640;24.356;2022-09-21T02:51:46;10.87;;;8.33;;
32824;SDS011;51060;42.640;24.356;2022-09-21T02:54:17;9.30;;;7.20;;
32824;SDS011;51060;42.640;24.356;2022-09-21T02:56:45;7.83;;;7.03;;
32824;SDS011;51060;42.640;24.356;2022-09-21T02:59:13;7.90;;;7.10;;
32824;SDS011;51060;42.640;24.356;2022-09-21T03:01:39;7.93;;;6.63;;
32824;SDS011;51060;42.640;24.356;2022-09-21T03:04:05;6.80;;;6.13;;
32824;SDS011;51060;42.640;24.356;2022-09-21T03:06:31;7.77;;;6.07;;
32824;SDS011;51060;42.640;24.356;2022-09-21T03:08:57;7.23;;;6.07;;
32824;SDS011;51060;42.640;24.356;2022-09-21T03:11:23;5.30;;;4.80;;
32824;SDS011;51060;42.640;24.356;2022-09-21T03:13:48;7.07;;;5.03;;
32824;SDS011;51060;42.640;24.356;2022-09-21T03:16:14;4.73;;;4.33;;
32824;SDS011;51060;42.640;24.356;2022-09-21T03:18:40;5.07;;;4.37;;
32824;SDS011;51060;42.640;24.356;2022-09-21T03:21:08;5.70;;;5.10;;
32824;SDS011;51060;42.640;24.356;2022-09-21T03:23:34;5.07;;;4.57;;
32824;SDS011;51060;42.640;24.356;2022-09-21T03:25:59;4.30;;;3.90;;
32824;SDS011;51060;42.640;24.356;2022-09-21T03:28:25;4.07;;;3.70;;
32824;SDS011;51060;42.640;24.356;2022-09-21T03:30:51;4.00;;;3.60;;
32824;SDS011;51060;42.640;24.356;2022-09-21T03:33:17;6.03;;;5.43;;
32824;SDS011;51060;42.640;24.356;2022-09-21T03:35:43;5.47;;;4.83;;
32824;SDS011;51060;42.640;24.356;2022-09-21T03:38:09;6.43;;;5.80;;
32824;SDS011;51060;42.640;24.356;2022-09-21T03:40:35;6.77;;;6.07;;
32824;SDS011;51060;42.640;24.356;2022-09-21T03:43:01;8.73;;;6.73;;
32824;SDS011;51060;42.640;24.356;2022-09-21T03:45:26;11.67;;;8.50;;
32824;SDS011;51060;42.640;24.356;2022-09-21T03:47:55;8.80;;;7.90;;
32824;SDS011;51060;42.640;24.356;2022-09-21T03:50:23;8.63;;;7.73;;
32824;SDS011;51060;42.640;24.356;2022-09-21T03:52:55;10.37;;;9.37;;
32824;SDS011;51060;42.640;24.356;2022-09-21T03:55:21;8.23;;;7.53;;
32824;SDS011;51060;42.640;24.356;2022-09-21T03:57:46;6.67;;;6.00;;
32824;SDS011;51060;42.640;24.356;2022-09-21T04:00:12;5.80;;;5.30;;
32824;SDS011;51060;42.640;24.356;2022-09-21T04:02:38;6.97;;;5.80;;
32824;SDS011;51060;42.640;24.356;2022-09-21T04:05:07;5.27;;;4.30;;
32824;SDS011;51060;42.640;24.356;2022-09-21T04:07:34;6.57;;;4.67;;
32824;SDS011;51060;42.640;24.356;2022-09-21T04:10:02;5.07;;;4.33;;
32824;SDS011;51060;42.640;24.356;2022-09-21T04:12:29;6.40;;;5.23;;
32824;SDS011;51060;42.640;24.356;2022-09-21T04:14:56;6.03;;;5.43;;
32824;SDS011;51060;42.640;24.356;2022-09-21T04:17:22;5.80;;;5.23;;
32824;SDS011;51060;42.640;24.356;2022-09-21T04:19:47;6.53;;;5.07;;
32824;SDS011;51060;42.640;24.356;2022-09-21T04:22:13;6.07;;;4.67;;
32824;SDS011;51060;42.640;24.356;2022-09-21T04:24:39;7.17;;;5.60;;
32824;SDS011;51060;42.640;24.356;2022-09-21T04:27:07;5.57;;;4.10;;
32824;SDS011;51060;42.640;24.356;2022-09-21T04:29:33;5.07;;;3.53;;
32824;SDS011;51060;42.640;24.356;2022-09-21T04:31:59;3.80;;;3.30;;
32824;SDS011;51060;42.640;24.356;2022-09-21T04:34:24;4.83;;;3.40;;
32824;SDS011;51060;42.640;24.356;2022-09-21T04:36:50;6.43;;;4.63;;
32824;SDS011;51060;42.640;24.356;2022-09-21T04:39:17;12.80;;;8.80;;
32824;SDS011;51060;42.640;24.356;2022-09-21T04:41:43;19.97;;;14.50;;
32824;SDS011;51060;42.640;24.356;2022-09-21T04:44:09;21.20;;;15.77;;
32824;SDS011;51060;42.640;24.356;2022-09-21T04:46:35;32.50;;;21.30;;
32824;SDS011;51060;42.640;24.356;2022-09-21T04:49:00;40.10;;;30.17;;
32824;SDS011;51060;42.640;24.356;2022-09-21T04:51:26;35.13;;;24.90;;
32824;SDS011;51060;42.640;24.356;2022-09-21T04:53:52;23.50;;;17.40;;
32824;SDS011;51060;42.640;24.356;2022-09-21T04:56:18;16.30;;;12.63;;
32824;SDS011;51060;42.640;24.356;2022-09-21T04:58:43;12.60;;;10.60;;
32824;SDS011;51060;42.640;24.356;2022-09-21T05:01:09;11.93;;;9.17;;
32824;SDS011;51060;42.640;24.356;2022-09-21T05:03:35;6.93;;;6.17;;
32824;SDS011;51060;42.640;24.356;2022-09-21T05:06:01;14.97;;;11.50;;
32824;SDS011;51060;42.640;24.356;2022-09-21T05:08:28;15.27;;;11.60;;
32824;SDS011;51060;42.640;24.356;2022-09-21T05:11:12;8.23;;;7.37;;
32824;SDS011;51060;42.640;24.356;2022-09-21T05:13:40;9.57;;;7.53;;
32824;SDS011;51060;42.640;24.356;2022-09-21T05:16:06;8.87;;;7.90;;
32824;SDS011;51060;42.640;24.356;2022-09-21T05:18:32;9.60;;;7.90;;
32824;SDS011;51060;42.640;24.356;2022-09-21T05:20:58;9.57;;;8.57;;
32824;SDS011;51060;42.640;24.356;2022-09-21T05:23:25;6.40;;;5.00;;
32824;SDS011;51060;42.640;24.356;2022-09-21T05:25:53;4.67;;;4.20;;
32824;SDS011;51060;42.640;24.356;2022-09-21T05:28:19;4.40;;;4.00;;
32824;SDS011;51060;42.640;24.356;2022-09-21T05:30:47;4.23;;;2.80;;
32824;SDS011;51060;42.640;24.356;2022-09-21T05:33:32;2.60;;;2.40;;
32824;SDS011;51060;42.640;24.356;2022-09-21T05:38:50;3.83;;;2.47;;
32824;SDS011;51060;42.640;24.356;2022-09-21T05:41:16;2.30;;;2.10;;
32824;SDS011;51060;42.640;24.356;2022-09-21T05:43:42;2.40;;;2.20;;
32824;SDS011;51060;42.640;24.356;2022-09-21T05:51:50;1.50;;;1.40;;
32824;SDS011;51060;42.640;24.356;2022-09-21T05:57:27;2.47;;;2.10;;
32824;SDS011;51060;42.640;24.356;2022-09-21T06:00:23;2.87;;;2.37;;
32824;SDS011;51060;42.640;24.356;2022-09-21T06:05:23;2.70;;;2.30;;
32824;SDS011;51060;42.640;24.356;2022-09-21T06:07:49;2.03;;;1.83;;
32824;SDS011;51060;42.640;24.356;2022-09-21T06:10:14;4.17;;;3.00;;
32824;SDS011;51060;42.640;24.356;2022-09-21T06:12:40;5.03;;;3.03;;
32824;SDS011;51060;42.640;24.356;2022-09-21T06:15:07;5.73;;;3.03;;
32824;SDS011;51060;42.640;24.356;2022-09-21T06:17:36;2.40;;;2.20;;
32824;SDS011;51060;42.640;24.356;2022-09-21T06:20:02;2.80;;;2.33;;
32824;SDS011;51060;42.640;24.356;2022-09-21T06:22:28;3.77;;;2.73;;
32824;SDS011;51060;42.640;24.356;2022-09-21T06:24:54;2.30;;;2.10;;
32824;SDS011;51060;42.640;24.356;2022-09-21T06:27:19;4.07;;;3.00;;
32824;SDS011;51060;42.640;24.356;2022-09-21T06:29:45;1.93;;;1.83;;
32824;SDS011;51060;42.640;24.356;2022-09-21T06:32:11;2.63;;;1.97;;
32824;SDS011;51060;42.640;24.356;2022-09-21T06:34:36;2.73;;;2.03;;
32824;SDS011;51060;42.640;24.356;2022-09-21T06:37:02;3.30;;;2.47;;
32824;SDS011;51060;42.640;24.356;2022-09-21T06:39:31;2.57;;;1.90;;
32824;SDS011;51060;42.640;24.356;2022-09-21T06:41:56;2.67;;;2.20;;
32824;SDS011;51060;42.640;24.356;2022-09-21T06:44:23;2.37;;;2.07;;
32824;SDS011;51060;42.640;24.356;2022-09-21T06:46:49;3.13;;;2.47;;
32824;SDS011;51060;42.640;24.356;2022-09-21T06:49:15;3.00;;;2.20;;
32824;SDS011;51060;42.640;24.356;2022-09-21T06:51:41;5.53;;;3.10;;
32824;SDS011;51060;42.640;24.356;2022-09-21T06:54:07;1.70;;;1.60;;
32824;SDS011;51060;42.640;24.356;2022-09-21T06:56:33;2.03;;;1.80;;
32824;SDS011;51060;42.640;24.356;2022-09-21T06:58:59;2.80;;;2.27;;
32824;SDS011;51060;42.640;24.356;2022-09-21T07:01:24;2.20;;;1.73;;
32824;SDS011;51060;42.640;24.356;2022-09-21T07:03:50;10.03;;;5.43;;
32824;SDS011;51060;42.640;24.356;2022-09-21T07:06:17;5.70;;;3.83;;
32824;SDS011;51060;42.640;24.356;2022-09-21T07:08:42;3.07;;;2.30;;
32824;SDS011;51060;42.640;24.356;2022-09-21T07:11:09;3.53;;;2.30;;
32824;SDS011;51060;42.640;24.356;2022-09-21T07:13:34;1.60;;;1.50;;
32824;SDS011;51060;42.640;24.356;2022-09-21T07:16:07;1.57;;;1.47;;
32824;SDS011;51060;42.640;24.356;2022-09-21T07:18:33;2.03;;;1.10;;
32824;SDS011;51060;42.640;24.356;2022-09-21T07:21:03;1.13;;;1.10;;
32824;SDS011;51060;42.640;24.356;2022-09-21T07:23:33;0.93;;;0.93;;
32824;SDS011;51060;42.640;24.356;2022-09-21T07:26:09;3.10;;;2.03;;
32824;SDS011;51060;42.640;24.356;2022-09-21T07:28:36;1.20;;;1.10;;
32824;SDS011;51060;42.640;24.356;2022-09-21T07:31:09;1.60;;;1.47;;
32824;SDS011;51060;42.640;24.356;2022-09-21T07:33:38;5.10;;;3.67;;
32824;SDS011;51060;42.640;24.356;2022-09-21T07:36:04;2.43;;;2.10;;
32824;SDS011;51060;42.640;24.356;2022-09-21T07:38:37;1.90;;;1.70;;
32824;SDS011;51060;42.640;24.356;2022-09-21T07:41:09;2.13;;;1.63;;
32824;SDS011;51060;42.640;24.356;2022-09-21T07:43:35;1.87;;;1.67;;
32824;SDS011;51060;42.640;24.356;2022-09-21T07:46:03;1.37;;;1.27;;
32824;SDS011;51060;42.640;24.356;2022-09-21T07:48:29;2.23;;;2.10;;
32824;SDS011;51060;42.640;24.356;2022-09-21T07:50:59;1.63;;;1.40;;
32824;SDS011;51060;42.640;24.356;2022-09-21T07:53:28;1.87;;;1.63;;
32824;SDS011;51060;42.640;24.356;2022-09-21T07:55:59;2.43;;;1.40;;
32824;SDS011;51060;42.640;24.356;2022-09-21T07:58:28;1.83;;;1.73;;
32824;SDS011;51060;42.640;24.356;2022-09-21T08:01:12;2.37;;;2.00;;
32824;SDS011;51060;42.640;24.356;2022-09-21T08:03:37;3.50;;;2.80;;
32824;SDS011;51060;42.640;24.356;2022-09-21T08:06:03;2.63;;;2.13;;
32824;SDS011;51060;42.640;24.356;2022-09-21T08:08:29;3.13;;;2.38;;
32824;SDS011;51060;42.640;24.356;2022-09-21T08:10:54;3.47;;;2.17;;
32824;SDS011;51060;42.640;24.356;2022-09-21T08:13:21;2.10;;;1.90;;
32824;SDS011;51060;42.640;24.356;2022-09-21T08:15:55;2.95;;;1.83;;
32824;SDS011;51060;42.640;24.356;2022-09-21T08:18:24;1.40;;;1.30;;
32824;SDS011;51060;42.640;24.356;2022-09-21T08:20:57;3.70;;;3.25;;
32824;SDS011;51060;42.640;24.356;2022-09-21T08:23:24;1.48;;;1.38;;
32824;SDS011;51060;42.640;24.356;2022-09-21T08:25:56;1.85;;;1.50;;
32824;SDS011;51060;42.640;24.356;2022-09-21T08:28:26;0.98;;;0.88;;
32824;SDS011;51060;42.640;24.356;2022-09-21T08:30:53;4.03;;;2.65;;
32824;SDS011;51060;42.640;24.356;2022-09-21T08:33:18;4.25;;;2.80;;
32824;SDS011;51060;42.640;24.356;2022-09-21T08:35:54;3.65;;;2.60;;
32824;SDS011;51060;42.640;24.356;2022-09-21T08:38:20;2.17;;;1.73;;
32824;SDS011;51060;42.640;24.356;2022-09-21T08:40:46;3.20;;;1.65;;
32824;SDS011;51060;42.640;24.356;2022-09-21T08:43:14;26.88;;;16.23;;
32824;SDS011;51060;42.640;24.356;2022-09-21T08:45:43;1.52;;;1.42;;
32824;SDS011;51060;42.640;24.356;2022-09-21T08:48:31;1.23;;;0.98;;
32824;SDS011;51060;42.640;24.356;2022-09-21T08:50:58;0.98;;;0.90;;
32824;SDS011;51060;42.640;24.356;2022-09-21T08:53:30;6.25;;;3.35;;
32824;SDS011;51060;42.640;24.356;2022-09-21T08:55:58;7.88;;;4.32;;
32824;SDS011;51060;42.640;24.356;2022-09-21T08:58:24;1.75;;;1.17;;
32824;SDS011;51060;42.640;24.356;2022-09-21T09:12:04;1.90;;;1.17;;
32824;SDS011;51060;42.640;24.356;2022-09-21T09:20:15;8.88;;;5.43;;
32824;SDS011;51060;42.640;24.356;2022-09-21T09:22:46;2.53;;;1.70;;
32824;SDS011;51060;42.640;24.356;2022-09-21T09:25:16;4.57;;;2.53;;
32824;SDS011;51060;42.640;24.356;2022-09-21T09:27:47;7.07;;;4.70;;
32824;SDS011;51060;42.640;24.356;2022-09-21T09:35:34;26.08;;;13.23;;
32824;SDS011;51060;42.640;24.356;2022-09-21T09:38:09;2.28;;;2.00;;
32824;SDS011;51060;42.640;24.356;2022-09-21T09:49:11;4.53;;;4.18;;
32824;SDS011;51060;42.640;24.356;2022-09-21T09:51:42;2.00;;;1.80;;
32824;SDS011;51060;42.640;24.356;2022-09-21T09:54:15;2.47;;;2.20;;
32824;SDS011;51060;42.640;24.356;2022-09-21T09:56:42;1.65;;;1.55;;
32824;SDS011;51060;42.640;24.356;2022-09-21T10:02:02;2.53;;;2.33;;
32824;SDS011;51060;42.640;24.356;2022-09-21T10:04:29;2.17;;;1.98;;
32824;SDS011;51060;42.640;24.356;2022-09-21T10:06:56;2.28;;;2.08;;
32824;SDS011;51060;42.640;24.356;2022-09-21T10:11:47;1.55;;;1.45;;
32824;SDS011;51060;42.640;24.356;2022-09-21T10:14:18;1.40;;;1.30;;
32824;SDS011;51060;42.640;24.356;2022-09-21T10:16:47;0.98;;;0.98;;
32824;SDS011;51060;42.640;24.356;2022-09-21T10:19:24;0.50;;;0.50;;
32824;SDS011;51060;42.640;24.356;2022-09-21T10:21:53;0.98;;;0.73;;
32824;SDS011;51060;42.640;24.356;2022-09-21T10:24:22;0.50;;;0.40;;
32824;SDS011;51060;42.640;24.356;2022-09-21T10:26:50;0.50;;;0.50;;
32824;SDS011;51060;42.640;24.356;2022-09-21T10:31:57;0.70;;;0.52;;
32824;SDS011;51060;42.640;24.356;2022-09-21T10:34:28;0.80;;;0.80;;
32824;SDS011;51060;42.640;24.356;2022-09-21T10:36:58;2.05;;;1.20;;
32824;SDS011;51060;42.640;24.356;2022-09-21T10:39:32;1.10;;;1.00;;
32824;SDS011;51060;42.640;24.356;2022-09-21T10:41:59;0.60;;;0.60;;
32824;SDS011;51060;42.640;24.356;2022-09-21T10:44:36;1.65;;;1.10;;
32824;SDS011;51060;42.640;24.356;2022-09-21T10:50:25;0.80;;;0.70;;
32824;SDS011;51060;42.640;24.356;2022-09-21T10:55:38;1.20;;;1.10;;
32824;SDS011;51060;42.640;24.356;2022-09-21T10:58:10;1.15;;;1.05;;
32824;SDS011;51060;42.640;24.356;2022-09-21T11:00:43;1.60;;;1.25;;
32824;SDS011;51060;42.640;24.356;2022-09-21T11:06:14;0.32;;;0.32;;
32824;SDS011;51060;42.640;24.356;2022-09-21T11:11:45;0.63;;;0.60;;
32824;SDS011;51060;42.640;24.356;2022-09-21T11:14:18;1.10;;;1.02;;
32824;SDS011;51060;42.640;24.356;2022-09-21T11:19:28;0.47;;;0.47;;
32824;SDS011;51060;42.640;24.356;2022-09-21T11:30:05;3.10;;;1.90;;
32824;SDS011;51060;42.640;24.356;2022-09-21T11:43:53;2.95;;;2.65;;
32824;SDS011;51060;42.640;24.356;2022-09-21T11:57:38;1.33;;;1.15;;
32824;SDS011;51060;42.640;24.356;2022-09-21T12:00:41;0.93;;;0.80;;
32824;SDS011;51060;42.640;24.356;2022-09-21T12:05:35;0.70;;;0.60;;
32824;SDS011;51060;42.640;24.356;2022-09-21T12:11:01;0.80;;;0.50;;
32824;SDS011;51060;42.640;24.356;2022-09-21T12:14:00;0.57;;;0.57;;
32824;SDS011;51060;42.640;24.356;2022-09-21T12:19:31;0.70;;;0.60;;
32824;SDS011;51060;42.640;24.356;2022-09-21T12:22:21;2.20;;;2.00;;
32824;SDS011;51060;42.640;24.356;2022-09-21T12:24:52;3.35;;;3.05;;
32824;SDS011;51060;42.640;24.356;2022-09-21T12:30:09;1.83;;;1.73;;
32824;SDS011;51060;42.640;24.356;2022-09-21T12:35:15;2.00;;;1.13;;
32824;SDS011;51060;42.640;24.356;2022-09-21T12:37:45;0.50;;;0.50;;
32824;SDS011;51060;42.640;24.356;2022-09-21T12:40:22;1.88;;;1.77;;
32824;SDS011;51060;42.640;24.356;2022-09-21T12:43:05;1.13;;;0.90;;
32824;SDS011;51060;42.640;24.356;2022-09-21T12:45:39;0.77;;;0.70;;
32824;SDS011;51060;42.640;24.356;2022-09-21T12:48:49;1.13;;;1.00;;
32824;SDS011;51060;42.640;24.356;2022-09-21T12:51:09;4.88;;;1.50;;
32824;SDS011;51060;42.640;24.356;2022-09-21T12:53:37;2.28;;;1.17;;
32824;SDS011;51060;42.640;24.356;2022-09-21T13:16:30;1.05;;;0.95;;
32824;SDS011;51060;42.640;24.356;2022-09-21T13:19:01;2.13;;;1.13;;
32824;SDS011;51060;42.640;24.356;2022-09-21T13:21:42;2.15;;;1.42;;
32824;SDS011;51060;42.640;24.356;2022-09-21T13:24:27;2.60;;;1.75;;
32824;SDS011;51060;42.640;24.356;2022-09-21T13:26:55;1.20;;;0.60;;
32824;SDS011;51060;42.640;24.356;2022-09-21T13:29:29;1.25;;;0.80;;
32824;SDS011;51060;42.640;24.356;2022-09-21T13:34:27;3.03;;;1.73;;
32824;SDS011;51060;42.640;24.356;2022-09-21T13:44:57;0.75;;;0.60;;
32824;SDS011;51060;42.640;24.356;2022-09-21T13:47:31;0.77;;;0.60;;
32824;SDS011;51060;42.640;24.356;2022-09-21T13:49:58;3.83;;;2.72;;
32824;SDS011;51060;42.640;24.356;2022-09-21T13:52:29;3.30;;;2.20;;
32824;SDS011;51060;42.640;24.356;2022-09-21T13:55:35;1.42;;;0.77;;
32824;SDS011;51060;42.640;24.356;2022-09-21T13:58:06;1.02;;;0.93;;
32824;SDS011;51060;42.640;24.356;2022-09-21T14:00:50;2.28;;;1.00;;
32824;SDS011;51060;42.640;24.356;2022-09-21T14:06:16;0.70;;;0.70;;
32824;SDS011;51060;42.640;24.356;2022-09-21T14:08:49;1.58;;;0.77;;
32824;SDS011;51060;42.640;24.356;2022-09-21T14:18:53;0.43;;;0.43;;
32824;SDS011;51060;42.640;24.356;2022-09-21T14:21:19;1.00;;;0.70;;
32824;SDS011;51060;42.640;24.356;2022-09-21T14:32:19;0.90;;;0.90;;
32824;SDS011;51060;42.640;24.356;2022-09-21T14:34:48;1.73;;;0.85;;
32824;SDS011;51060;42.640;24.356;2022-09-21T14:37:34;1.20;;;1.10;;
32824;SDS011;51060;42.640;24.356;2022-09-21T14:42:50;27.50;;;25.50;;
32824;SDS011;51060;42.640;24.356;2022-09-21T14:45:24;4.35;;;1.98;;
32824;SDS011;51060;42.640;24.356;2022-09-21T14:48:15;2.33;;;2.13;;
32824;SDS011;51060;42.640;24.356;2022-09-21T14:50:45;2.97;;;2.60;;
32824;SDS011;51060;42.640;24.356;2022-09-21T15:07:15;14.35;;;13.25;;
32824;SDS011;51060;42.640;24.356;2022-09-21T15:10:14;4.22;;;3.83;;
32824;SDS011;51060;42.640;24.356;2022-09-21T15:16:31;4.80;;;3.35;;
32824;SDS011;51060;42.640;24.356;2022-09-21T15:21:50;2.05;;;1.73;;
32824;SDS011;51060;42.640;24.356;2022-09-21T15:24:28;14.55;;;12.48;;
32824;SDS011;51060;42.640;24.356;2022-09-21T15:27:10;4.38;;;3.33;;
32824;SDS011;51060;42.640;24.356;2022-09-21T15:29:41;2.80;;;2.50;;
32824;SDS011;51060;42.640;24.356;2022-09-21T15:37:41;1.48;;;1.23;;
32824;SDS011;51060;42.640;24.356;2022-09-21T15:40:15;3.75;;;3.03;;
32824;SDS011;51060;42.640;24.356;2022-09-21T15:45:48;3.70;;;2.78;;
32824;SDS011;51060;42.640;24.356;2022-09-21T15:48:25;4.80;;;3.85;;
32824;SDS011;51060;42.640;24.356;2022-09-21T15:50:57;8.02;;;5.25;;
32824;SDS011;51060;42.640;24.356;2022-09-21T15:53:30;25.10;;;17.23;;
32824;SDS011;51060;42.640;24.356;2022-09-21T15:55:57;17.23;;;12.27;;
32824;SDS011;51060;42.640;24.356;2022-09-21T16:01:02;19.13;;;14.27;;
32824;SDS011;51060;42.640;24.356;2022-09-21T16:03:37;7.70;;;5.67;;
32824;SDS011;51060;42.640;24.356;2022-09-21T16:11:52;2.80;;;1.70;;
32824;SDS011;51060;42.640;24.356;2022-09-21T16:14:20;7.90;;;6.80;;
32824;SDS011;51060;42.640;24.356;2022-09-21T16:17:06;34.83;;;19.25;;
32824;SDS011;51060;42.640;24.356;2022-09-21T16:22:23;18.63;;;11.83;;
32824;SDS011;51060;42.640;24.356;2022-09-21T16:25:01;13.05;;;9.55;;
32824;SDS011;51060;42.640;24.356;2022-09-21T16:27:31;21.23;;;13.00;;
32824;SDS011;51060;42.640;24.356;2022-09-21T16:29:57;18.47;;;10.87;;
32824;SDS011;51060;42.640;24.356;2022-09-21T16:32:27;34.87;;;23.03;;
32824;SDS011;51060;42.640;24.356;2022-09-21T16:34:53;10.75;;;6.88;;
32824;SDS011;51060;42.640;24.356;2022-09-21T16:37:58;5.13;;;4.33;;
32824;SDS011;51060;42.640;24.356;2022-09-21T16:40:24;6.87;;;4.50;;
32824;SDS011;51060;42.640;24.356;2022-09-21T16:42:50;7.03;;;5.10;;
32824;SDS011;51060;42.640;24.356;2022-09-21T16:45:23;4.13;;;3.13;;
32824;SDS011;51060;42.640;24.356;2022-09-21T16:47:49;11.67;;;8.43;;
32824;SDS011;51060;42.640;24.356;2022-09-21T16:50:17;15.33;;;11.63;;
32824;SDS011;51060;42.640;24.356;2022-09-21T16:52:43;12.00;;;9.33;;
32824;SDS011;51060;42.640;24.356;2022-09-21T16:55:13;183.07;;;85.47;;
32824;SDS011;51060;42.640;24.356;2022-09-21T16:57:40;134.80;;;66.07;;
32824;SDS011;51060;42.640;24.356;2022-09-21T17:00:10;19.83;;;12.80;;
32824;SDS011;51060;42.640;24.356;2022-09-21T17:02:37;55.53;;;34.03;;
32824;SDS011;51060;42.640;24.356;2022-09-21T17:05:09;21.90;;;13.70;;
32824;SDS011;51060;42.640;24.356;2022-09-21T17:07:35;10.00;;;8.00;;
32824;SDS011;51060;42.640;24.356;2022-09-21T17:10:00;6.53;;;5.83;;
32824;SDS011;51060;42.640;24.356;2022-09-21T17:12:35;9.70;;;8.70;;
32824;SDS011;51060;42.640;24.356;2022-09-21T17:15:01;27.23;;;22.27;;
32824;SDS011;51060;42.640;24.356;2022-09-21T17:17:28;32.87;;;24.23;;
32824;SDS011;51060;42.640;24.356;2022-09-21T17:19:57;5.60;;;4.10;;
32824;SDS011;51060;42.640;24.356;2022-09-21T17:22:22;6.63;;;5.60;;
32824;SDS011;51060;42.640;24.356;2022-09-21T17:24:49;3.10;;;2.40;;
32824;SDS011;51060;42.640;24.356;2022-09-21T17:27:17;1.23;;;1.13;;
32824;SDS011;51060;42.640;24.356;2022-09-21T17:29:45;1.33;;;1.23;;
32824;SDS011;51060;42.640;24.356;2022-09-21T17:32:14;1.87;;;1.60;;
32824;SDS011;51060;42.640;24.356;2022-09-21T17:34:40;1.53;;;1.43;;
32824;SDS011;51060;42.640;24.356;2022-09-21T17:37:06;1.60;;;1.50;;
32824;SDS011;51060;42.640;24.356;2022-09-21T17:39:34;1.90;;;1.80;;
32824;SDS011;51060;42.640;24.356;2022-09-21T17:42:00;2.77;;;2.17;;
32824;SDS011;51060;42.640;24.356;2022-09-21T17:47:22;1.00;;;1.00;;
32824;SDS011;51060;42.640;24.356;2022-09-21T17:49:52;0.90;;;0.90;;
32824;SDS011;51060;42.640;24.356;2022-09-21T17:52:20;2.50;;;2.30;;
32824;SDS011;51060;42.640;24.356;2022-09-21T17:55:06;31.07;;;21.73;;
32824;SDS011;51060;42.640;24.356;2022-09-21T18:00:22;29.50;;;19.07;;
32824;SDS011;51060;42.640;24.356;2022-09-21T18:02:49;22.33;;;14.63;;
32824;SDS011;51060;42.640;24.356;2022-09-21T18:05:18;19.60;;;13.50;;
32824;SDS011;51060;42.640;24.356;2022-09-21T18:07:45;17.50;;;11.63;;
32824;SDS011;51060;42.640;24.356;2022-09-21T18:10:11;15.20;;;10.87;;
32824;SDS011;51060;42.640;24.356;2022-09-21T18:17:52;6.80;;;6.10;;
32824;SDS011;51060;42.640;24.356;2022-09-21T18:25:36;8.83;;;6.57;;
32824;SDS011;51060;42.640;24.356;2022-09-21T18:28:14;3.70;;;3.10;;
32824;SDS011;51060;42.640;24.356;2022-09-21T18:30:42;2.53;;;2.00;;
32824;SDS011;51060;42.640;24.356;2022-09-21T18:38:39;10.63;;;8.10;;
32824;SDS011;51060;42.640;24.356;2022-09-21T18:41:09;19.03;;;15.37;;
32824;SDS011;51060;42.640;24.356;2022-09-21T18:46:11;16.13;;;12.70;;
32824;SDS011;51060;42.640;24.356;2022-09-21T18:51:22;11.47;;;8.50;;
32824;SDS011;51060;42.640;24.356;2022-09-21T18:53:55;8.00;;;5.57;;
32824;SDS011;51060;42.640;24.356;2022-09-21T18:56:22;7.77;;;5.03;;
32824;SDS011;51060;42.640;24.356;2022-09-21T18:58:49;6.33;;;4.33;;
32824;SDS011;51060;42.640;24.356;2022-09-21T19:01:15;11.33;;;6.40;;
32824;SDS011;51060;42.640;24.356;2022-09-21T19:03:41;12.77;;;11.10;;
32824;SDS011;51060;42.640;24.356;2022-09-21T19:06:14;14.87;;;13.30;;